createdAt,value
2022-07-29T00:01:57.437Z,1.33
2022-07-29T00:06:59.854Z,1.50
2022-07-29T00:12:02.748Z,1.50
2022-07-29T00:17:05.228Z,1.50
2022-07-29T00:22:08.139Z,1.20
2022-07-29T00:27:10.679Z,1.40
2022-07-29T00:32:13.070Z,1.43
2022-07-29T00:37:15.503Z,1.50
2022-07-29T00:42:18.450Z,1.60
2022-07-29T00:47:20.808Z,1.30
2022-07-29T00:52:23.141Z,1.53
2022-07-29T00:57:25.611Z,1.43
2022-07-29T01:02:28.037Z,1.70
2022-07-29T01:07:33.201Z,1.20
2022-07-29T01:12:36.577Z,1.40
2022-07-29T01:18:02.793Z,1.60
2022-07-29T01:23:05.737Z,1.63
2022-07-29T01:28:45.763Z,1.47
2022-07-29T01:34:06.217Z,1.80
2022-07-29T01:39:17.513Z,1.60
2022-07-29T01:44:33.563Z,1.90
2022-07-29T01:49:40.560Z,1.80
2022-07-29T01:54:59.151Z,2.37
2022-07-29T02:00:02.761Z,2.47
2022-07-29T02:05:18.287Z,2.03
2022-07-29T02:10:26.111Z,1.93
2022-07-29T02:15:31.423Z,1.80
2022-07-29T02:20:35.231Z,2.23
2022-07-29T02:25:38.606Z,1.83
2022-07-29T02:30:43.650Z,2.13
2022-07-29T02:35:47.262Z,2.10
2022-07-29T02:40:51.403Z,1.67
2022-07-29T02:45:55.887Z,2.10
2022-07-29T02:51:06.591Z,2.10
2022-07-29T02:56:14.042Z,1.63
2022-07-29T03:01:21.963Z,1.73
2022-07-29T03:06:37.678Z,1.80
2022-07-29T03:11:50.672Z,1.63
2022-07-29T03:16:53.859Z,2.27
2022-07-29T03:22:00.624Z,1.73
2022-07-29T03:27:04.975Z,1.80
2022-07-29T03:32:08.879Z,1.70
2022-07-29T03:37:11.365Z,2.17
2022-07-29T03:42:17.153Z,1.80
2022-07-29T03:47:23.634Z,1.83
2022-07-29T03:52:47.574Z,2.10
2022-07-29T03:57:51.389Z,2.20
2022-07-29T04:02:53.922Z,1.97
2022-07-29T04:07:56.774Z,1.80
2022-07-29T04:13:01.048Z,1.97
2022-07-29T04:18:03.845Z,2.20
2022-07-29T04:23:06.170Z,2.43
2022-07-29T04:28:09.438Z,2.43
2022-07-29T04:33:11.787Z,2.20
2022-07-29T04:38:15.956Z,2.00
2022-07-29T04:43:22.759Z,2.00
2022-07-29T04:48:28.763Z,2.03
2022-07-29T04:53:31.190Z,2.10
2022-07-29T04:58:36.170Z,2.23
2022-07-29T05:03:38.620Z,1.83
2022-07-29T05:08:41.934Z,2.20
2022-07-29T05:13:45.247Z,2.10
2022-07-29T05:18:48.771Z,2.43
2022-07-29T05:23:51.279Z,2.10
2022-07-29T05:28:54.804Z,2.07
2022-07-29T05:33:57.087Z,1.77
2022-07-29T05:38:59.437Z,1.90
2022-07-29T05:44:01.775Z,2.50
2022-07-29T05:49:04.109Z,2.37
2022-07-29T05:54:06.444Z,2.17
2022-07-29T05:59:18.122Z,2.60
2022-07-29T06:04:21.054Z,2.57
2022-07-29T06:09:23.998Z,2.40
2022-07-29T06:14:27.638Z,2.23
2022-07-29T06:19:30.122Z,2.33
2022-07-29T06:24:32.415Z,2.50
2022-07-29T06:29:35.110Z,2.90
2022-07-29T06:34:37.615Z,2.60
2022-07-29T06:39:40.004Z,2.80
2022-07-29T06:44:42.795Z,2.90
2022-07-29T06:49:45.036Z,2.80
2022-07-29T06:54:49.004Z,3.17
2022-07-29T06:59:51.259Z,3.13
2022-07-29T07:04:53.492Z,2.80
2022-07-29T07:09:55.825Z,3.03
2022-07-29T07:14:58.093Z,2.97
2022-07-29T07:20:00.353Z,3.00
2022-07-29T07:25:02.586Z,2.70
2022-07-29T07:30:09.337Z,3.03
2022-07-29T07:35:11.638Z,3.60
2022-07-29T07:40:18.897Z,2.60
2022-07-29T07:45:21.467Z,2.97
2022-07-29T07:50:23.782Z,3.27
2022-07-29T07:55:27.055Z,3.17
2022-07-29T08:00:29.476Z,2.40
2022-07-29T08:05:31.778Z,3.73
2022-07-29T08:10:53.182Z,3.27
2022-07-29T08:15:59.214Z,3.63
2022-07-29T08:21:01.649Z,2.83
2022-07-29T08:26:03.886Z,2.40
2022-07-29T08:31:07.025Z,3.03
2022-07-29T08:36:09.797Z,3.37
2022-07-29T08:41:12.233Z,3.80
2022-07-29T08:46:15.126Z,3.50
2022-07-29T08:51:22.124Z,3.37
2022-07-29T08:56:24.799Z,3.90
2022-07-29T09:01:35.059Z,3.97
2022-07-29T09:06:46.295Z,3.40
2022-07-29T09:11:49.339Z,4.17
2022-07-29T09:16:57.017Z,3.90
2022-07-29T09:22:03.378Z,4.07
2022-07-29T09:27:10.675Z,3.40
2022-07-29T09:32:13.282Z,3.13
2022-07-29T09:37:28.518Z,3.33
2022-07-29T09:42:33.344Z,3.00
2022-07-29T09:47:45.923Z,2.83
2022-07-29T09:52:54.217Z,2.80
2022-07-29T09:58:19.885Z,2.63
2022-07-29T10:03:23.180Z,2.90
2022-07-29T10:08:28.780Z,3.10
2022-07-29T10:13:31.223Z,3.50
2022-07-29T10:18:34.637Z,2.80
2022-07-29T10:23:46.754Z,3.20
2022-07-29T10:28:49.688Z,2.80
2022-07-29T10:34:08.024Z,3.70
2022-07-29T10:39:49.931Z,4.07
2022-07-29T10:44:53.902Z,3.50
2022-07-29T10:50:01.398Z,3.37
2022-07-29T10:55:05.673Z,3.43
2022-07-29T11:00:16.938Z,3.30
2022-07-29T11:05:20.863Z,2.90
2022-07-29T11:10:31.133Z,3.30
2022-07-29T11:15:58.249Z,3.40
2022-07-29T11:21:00.703Z,3.57
2022-07-29T11:26:13.299Z,3.50
2022-07-29T11:31:17.554Z,3.47
2022-07-29T11:36:28.196Z,3.53
2022-07-29T11:41:36.778Z,3.00
2022-07-29T11:46:53.937Z,3.57
2022-07-29T11:51:58.785Z,3.07
2022-07-29T11:57:01.834Z,3.30
2022-07-29T12:02:33.234Z,3.10
2022-07-29T12:07:33.836Z,3.10
2022-07-29T12:12:39.455Z,3.40
2022-07-29T12:17:41.900Z,2.67
2022-07-29T12:22:45.159Z,2.70
2022-07-29T12:27:48.828Z,2.97
2022-07-29T12:32:51.741Z,3.20
2022-07-29T12:37:55.306Z,3.63
2022-07-29T12:43:10.267Z,3.60
2022-07-29T12:48:13.326Z,3.20
2022-07-29T12:53:15.646Z,3.50
2022-07-29T12:58:36.607Z,2.87
2022-07-29T13:04:03.708Z,3.00
2022-07-29T13:09:14.893Z,2.50
2022-07-29T13:14:42.466Z,2.70
2022-07-29T13:20:13.716Z,2.63
2022-07-29T13:25:25.635Z,2.23
2022-07-29T13:30:28.022Z,2.40
2022-07-29T13:35:30.680Z,2.20
2022-07-29T13:40:34.734Z,2.20
2022-07-29T13:45:38.651Z,2.00
2022-07-29T13:50:41.011Z,2.10
2022-07-29T13:55:43.466Z,2.30
2022-07-29T14:00:46.459Z,2.10
2022-07-29T14:05:49.007Z,1.80
2022-07-29T14:10:51.350Z,1.80
2022-07-29T14:15:54.123Z,1.80
2022-07-29T14:20:57.503Z,1.70
2022-07-29T14:25:59.823Z,1.77
2022-07-29T14:31:04.245Z,1.73
2022-07-29T14:36:06.561Z,1.50
2022-07-29T14:41:09.049Z,1.80
2022-07-29T14:46:11.842Z,1.87
2022-07-29T14:51:14.227Z,1.77
2022-07-29T14:56:36.157Z,1.73
2022-07-29T15:01:38.820Z,1.80
2022-07-29T15:06:41.414Z,2.07
2022-07-29T15:11:43.658Z,1.80
2022-07-29T15:16:46.600Z,1.93
2022-07-29T15:21:50.430Z,2.37
2022-07-29T15:26:52.724Z,2.17
2022-07-29T15:31:55.893Z,2.07
2022-07-29T15:36:58.694Z,2.10
2022-07-29T15:42:01.464Z,2.33
2022-07-29T15:47:04.159Z,2.70
2022-07-29T15:52:09.458Z,2.60
2022-07-29T15:57:11.810Z,2.57
2022-07-29T16:02:14.173Z,2.87
2022-07-29T16:07:17.118Z,2.40
2022-07-29T16:12:19.554Z,2.57
2022-07-29T16:17:21.868Z,2.80
2022-07-29T16:22:24.148Z,2.17
2022-07-29T16:27:35.714Z,2.77
2022-07-29T16:32:41.046Z,2.43
2022-07-29T16:37:43.357Z,2.40
2022-07-29T16:42:47.222Z,2.53
2022-07-29T16:47:50.018Z,2.50
2022-07-29T16:52:52.527Z,2.83
2022-07-29T16:57:54.850Z,2.50
2022-07-29T17:02:57.304Z,2.70
2022-07-29T17:07:59.536Z,2.60
2022-07-29T17:13:01.814Z,2.53
2022-07-29T17:18:12.433Z,2.60
2022-07-29T17:23:15.497Z,2.83
2022-07-29T17:28:17.937Z,2.53
2022-07-29T17:33:20.354Z,2.30
2022-07-29T17:38:22.947Z,2.00
2022-07-29T17:43:25.410Z,2.30
2022-07-29T17:48:27.734Z,2.00
2022-07-29T17:53:30.514Z,2.03
2022-07-29T17:58:33.374Z,2.53
2022-07-29T18:03:37.206Z,2.40
2022-07-29T18:08:41.175Z,2.50
2022-07-29T18:13:43.783Z,2.53
2022-07-29T18:18:46.565Z,2.50
2022-07-29T18:23:50.666Z,3.00
2022-07-29T18:28:53.590Z,2.60
2022-07-29T18:33:59.949Z,2.40
2022-07-29T18:39:03.252Z,2.57
2022-07-29T18:44:05.802Z,2.60
2022-07-29T18:49:08.222Z,2.50
2022-07-29T18:54:10.755Z,2.43
2022-07-29T18:59:16.873Z,2.50
2022-07-29T19:04:19.477Z,2.40
2022-07-29T19:09:21.951Z,3.03
2022-07-29T19:14:24.247Z,2.03
2022-07-29T19:19:27.365Z,2.37
2022-07-29T19:24:29.658Z,2.20
2022-07-29T19:29:32.750Z,2.43
2022-07-29T19:34:34.995Z,2.40
2022-07-29T19:39:37.571Z,2.37
2022-07-29T19:44:39.903Z,2.50
2022-07-29T19:49:42.210Z,2.40
2022-07-29T19:54:44.462Z,2.43
2022-07-29T19:59:46.785Z,2.50
2022-07-29T20:04:49.133Z,2.57
2022-07-29T20:09:54.711Z,2.40
2022-07-29T20:14:57.881Z,2.50
2022-07-29T20:20:01.237Z,3.43
2022-07-29T20:25:05.251Z,3.40
2022-07-29T20:30:08.853Z,2.90
2022-07-29T20:35:12.090Z,3.07
2022-07-29T20:40:17.531Z,3.43
2022-07-29T20:45:20.060Z,3.70
2022-07-29T20:50:23.892Z,4.50
2022-07-29T20:55:26.601Z,4.47
2022-07-29T21:00:29.648Z,3.53
2022-07-29T21:05:32.695Z,3.43
2022-07-29T21:10:35.156Z,3.53
2022-07-29T21:15:38.115Z,3.70
2022-07-29T21:20:40.418Z,3.00
2022-07-29T21:25:43.619Z,2.77
2022-07-29T21:30:46.391Z,3.10
2022-07-29T21:36:42.328Z,3.43
2022-07-29T21:41:12.629Z,3.37
2022-07-29T21:46:18.046Z,3.83
2022-07-29T21:51:20.729Z,3.03
2022-07-29T21:56:27.467Z,3.77
2022-07-29T22:01:30.800Z,3.53
2022-07-29T22:06:42.044Z,4.23
2022-07-29T22:11:44.584Z,3.30
2022-07-29T22:16:48.470Z,3.27
2022-07-29T22:21:50.922Z,3.10
2022-07-29T22:26:54.281Z,2.90
2022-07-29T22:31:56.949Z,2.53
2022-07-29T22:36:59.634Z,2.77
2022-07-29T22:42:02.214Z,3.00
2022-07-29T22:47:05.223Z,2.97
2022-07-29T22:52:09.122Z,3.07
2022-07-29T22:57:11.435Z,3.20
2022-07-29T23:02:13.917Z,3.00
2022-07-29T23:07:16.477Z,2.90
2022-07-29T23:12:18.746Z,3.00
2022-07-29T23:17:21.361Z,2.83
2022-07-29T23:22:23.691Z,2.90
2022-07-29T23:27:25.957Z,2.60
2022-07-29T23:32:28.311Z,3.27
2022-07-29T23:37:30.617Z,3.00
2022-07-29T23:42:33.063Z,3.47
2022-07-29T23:47:35.480Z,3.30
2022-07-29T23:52:38.720Z,3.13
2022-07-29T23:57:40.963Z,3.20
